sensor_id;sensor_type;location;lat;lon;timestamp;P1;durP1;ratioP1;P2;durP2;ratioP2
22571;SDS011;11452;53.368;14.658;2022-10-23T00:02:44;7.47;;;5.60;;
22571;SDS011;11452;53.368;14.658;2022-10-23T00:07:55;6.23;;;5.33;;
22571;SDS011;11452;53.368;14.658;2022-10-23T00:13:01;5.63;;;5.13;;
22571;SDS011;11452;53.368;14.658;2022-10-23T00:18:07;7.13;;;6.07;;
22571;SDS011;11452;53.368;14.658;2022-10-23T00:23:12;7.57;;;5.97;;
22571;SDS011;11452;53.368;14.658;2022-10-23T00:28:17;5.87;;;5.33;;
22571;SDS011;11452;53.368;14.658;2022-10-23T00:33:23;6.27;;;5.20;;
22571;SDS011;11452;53.368;14.658;2022-10-23T00:38:28;7.67;;;5.30;;
22571;SDS011;11452;53.368;14.658;2022-10-23T00:43:34;7.23;;;5.33;;
22571;SDS011;11452;53.368;14.658;2022-10-23T00:48:41;7.60;;;5.63;;
22571;SDS011;11452;53.368;14.658;2022-10-23T00:53:48;5.57;;;5.07;;
22571;SDS011;11452;53.368;14.658;2022-10-23T00:58:57;6.13;;;5.60;;
22571;SDS011;11452;53.368;14.658;2022-10-23T01:04:04;8.93;;;6.33;;
22571;SDS011;11452;53.368;14.658;2022-10-23T01:09:17;7.83;;;5.57;;
22571;SDS011;11452;53.368;14.658;2022-10-23T01:30:18;6.50;;;5.20;;
22571;SDS011;11452;53.368;14.658;2022-10-23T01:40:45;9.10;;;5.50;;
22571;SDS011;11452;53.368;14.658;2022-10-23T01:45:48;6.40;;;5.50;;
22571;SDS011;11452;53.368;14.658;2022-10-23T01:51:02;5.60;;;4.97;;
22571;SDS011;11452;53.368;14.658;2022-10-23T01:56:10;6.70;;;5.47;;
22571;SDS011;11452;53.368;14.658;2022-10-23T02:01:19;7.10;;;5.57;;
22571;SDS011;11452;53.368;14.658;2022-10-23T02:06:27;6.80;;;5.60;;
22571;SDS011;11452;53.368;14.658;2022-10-23T02:11:34;9.07;;;5.60;;
22571;SDS011;11452;53.368;14.658;2022-10-23T02:16:42;7.77;;;5.50;;
22571;SDS011;11452;53.368;14.658;2022-10-23T02:21:51;7.90;;;5.33;;
22571;SDS011;11452;53.368;14.658;2022-10-23T02:27:21;8.97;;;5.73;;
22571;SDS011;11452;53.368;14.658;2022-10-23T02:32:25;6.23;;;5.63;;
22571;SDS011;11452;53.368;14.658;2022-10-23T02:37:32;9.30;;;5.20;;
22571;SDS011;11452;53.368;14.658;2022-10-23T02:42:40;8.47;;;5.83;;
22571;SDS011;11452;53.368;14.658;2022-10-23T02:48:00;7.40;;;6.70;;
22571;SDS011;11452;53.368;14.658;2022-10-23T02:53:31;7.40;;;5.90;;
22571;SDS011;11452;53.368;14.658;2022-10-23T03:04:02;7.67;;;6.13;;
22571;SDS011;11452;53.368;14.658;2022-10-23T03:09:10;8.90;;;7.13;;
22571;SDS011;11452;53.368;14.658;2022-10-23T03:14:15;8.67;;;6.43;;
22571;SDS011;11452;53.368;14.658;2022-10-23T03:19:22;9.97;;;6.87;;
22571;SDS011;11452;53.368;14.658;2022-10-23T03:24:27;7.77;;;5.97;;
22571;SDS011;11452;53.368;14.658;2022-10-23T03:29:33;9.73;;;6.03;;
22571;SDS011;11452;53.368;14.658;2022-10-23T03:34:38;7.07;;;6.37;;
22571;SDS011;11452;53.368;14.658;2022-10-23T03:39:44;9.03;;;5.97;;
22571;SDS011;11452;53.368;14.658;2022-10-23T03:44:50;9.13;;;5.77;;
22571;SDS011;11452;53.368;14.658;2022-10-23T03:49:55;9.17;;;7.30;;
22571;SDS011;11452;53.368;14.658;2022-10-23T03:55:01;7.30;;;6.57;;
22571;SDS011;11452;53.368;14.658;2022-10-23T04:00:07;10.70;;;7.13;;
22571;SDS011;11452;53.368;14.658;2022-10-23T04:05:18;9.07;;;6.77;;
22571;SDS011;11452;53.368;14.658;2022-10-23T04:10:26;8.00;;;6.93;;
22571;SDS011;11452;53.368;14.658;2022-10-23T04:15:31;7.40;;;6.70;;
22571;SDS011;11452;53.368;14.658;2022-10-23T04:20:37;7.50;;;6.73;;
22571;SDS011;11452;53.368;14.658;2022-10-23T04:25:43;9.20;;;7.03;;
22571;SDS011;11452;53.368;14.658;2022-10-23T04:30:49;7.47;;;6.70;;
22571;SDS011;11452;53.368;14.658;2022-10-23T04:35:55;7.30;;;6.50;;
22571;SDS011;11452;53.368;14.658;2022-10-23T04:41:02;8.57;;;6.83;;
22571;SDS011;11452;53.368;14.658;2022-10-23T04:46:09;10.60;;;6.90;;
22571;SDS011;11452;53.368;14.658;2022-10-23T04:51:15;9.33;;;7.13;;
22571;SDS011;11452;53.368;14.658;2022-10-23T04:56:31;10.20;;;7.40;;
22571;SDS011;11452;53.368;14.658;2022-10-23T05:01:40;7.73;;;7.03;;
22571;SDS011;11452;53.368;14.658;2022-10-23T05:06:45;10.07;;;7.07;;
22571;SDS011;11452;53.368;14.658;2022-10-23T05:11:56;8.10;;;7.30;;
22571;SDS011;11452;53.368;14.658;2022-10-23T05:17:02;8.40;;;7.50;;
22571;SDS011;11452;53.368;14.658;2022-10-23T05:22:10;7.93;;;7.23;;
22571;SDS011;11452;53.368;14.658;2022-10-23T05:27:19;9.97;;;7.70;;
22571;SDS011;11452;53.368;14.658;2022-10-23T05:32:26;9.10;;;8.20;;
22571;SDS011;11452;53.368;14.658;2022-10-23T05:37:38;9.17;;;8.13;;
22571;SDS011;11452;53.368;14.658;2022-10-23T05:42:51;9.37;;;7.93;;
22571;SDS011;11452;53.368;14.658;2022-10-23T05:47:58;10.50;;;8.80;;
22571;SDS011;11452;53.368;14.658;2022-10-23T05:53:23;10.67;;;8.53;;
22571;SDS011;11452;53.368;14.658;2022-10-23T05:58:39;10.23;;;8.20;;
22571;SDS011;11452;53.368;14.658;2022-10-23T06:03:46;11.60;;;8.53;;
22571;SDS011;11452;53.368;14.658;2022-10-23T06:08:54;9.40;;;8.43;;
22571;SDS011;11452;53.368;14.658;2022-10-23T06:14:00;13.73;;;9.00;;
22571;SDS011;11452;53.368;14.658;2022-10-23T06:19:08;9.57;;;8.23;;
22571;SDS011;11452;53.368;14.658;2022-10-23T06:24:16;11.43;;;8.10;;
22571;SDS011;11452;53.368;14.658;2022-10-23T06:29:23;11.83;;;8.60;;
22571;SDS011;11452;53.368;14.658;2022-10-23T06:34:30;9.60;;;8.60;;
22571;SDS011;11452;53.368;14.658;2022-10-23T06:39:35;9.60;;;8.40;;
22571;SDS011;11452;53.368;14.658;2022-10-23T06:44:44;9.97;;;8.40;;
22571;SDS011;11452;53.368;14.658;2022-10-23T06:49:51;9.93;;;8.03;;
22571;SDS011;11452;53.368;14.658;2022-10-23T06:54:57;9.97;;;8.57;;
22571;SDS011;11452;53.368;14.658;2022-10-23T07:00:05;11.60;;;8.10;;
22571;SDS011;11452;53.368;14.658;2022-10-23T07:05:13;8.80;;;7.70;;
22571;SDS011;11452;53.368;14.658;2022-10-23T07:10:18;9.50;;;8.33;;
22571;SDS011;11452;53.368;14.658;2022-10-23T07:15:26;9.27;;;7.87;;
22571;SDS011;11452;53.368;14.658;2022-10-23T07:20:33;9.43;;;8.03;;
22571;SDS011;11452;53.368;14.658;2022-10-23T07:25:39;10.70;;;8.97;;
22571;SDS011;11452;53.368;14.658;2022-10-23T07:30:50;11.10;;;8.47;;
22571;SDS011;11452;53.368;14.658;2022-10-23T07:36:04;9.87;;;8.10;;
22571;SDS011;11452;53.368;14.658;2022-10-23T07:41:11;9.83;;;7.60;;
22571;SDS011;11452;53.368;14.658;2022-10-23T07:46:19;10.87;;;8.33;;
22571;SDS011;11452;53.368;14.658;2022-10-23T07:51:25;9.70;;;8.00;;
22571;SDS011;11452;53.368;14.658;2022-10-23T07:56:32;8.53;;;7.63;;
22571;SDS011;11452;53.368;14.658;2022-10-23T08:01:58;9.77;;;8.27;;
22571;SDS011;11452;53.368;14.658;2022-10-23T08:07:05;8.60;;;7.37;;
22571;SDS011;11452;53.368;14.658;2022-10-23T08:12:13;11.57;;;7.33;;
22571;SDS011;11452;53.368;14.658;2022-10-23T08:17:19;8.67;;;7.30;;
22571;SDS011;11452;53.368;14.658;2022-10-23T08:22:36;9.63;;;8.20;;
22571;SDS011;11452;53.368;14.658;2022-10-23T08:27:43;7.50;;;6.67;;
22571;SDS011;11452;53.368;14.658;2022-10-23T08:32:50;8.33;;;7.33;;
22571;SDS011;11452;53.368;14.658;2022-10-23T08:37:55;9.23;;;7.27;;
22571;SDS011;11452;53.368;14.658;2022-10-23T08:54:01;10.03;;;6.53;;
22571;SDS011;11452;53.368;14.658;2022-10-23T09:04:12;7.90;;;6.00;;
22571;SDS011;11452;53.368;14.658;2022-10-23T09:14:51;7.17;;;5.33;;
22571;SDS011;11452;53.368;14.658;2022-10-23T09:25:22;8.27;;;6.63;;
22571;SDS011;11452;53.368;14.658;2022-10-23T09:30:33;8.20;;;6.53;;
22571;SDS011;11452;53.368;14.658;2022-10-23T09:35:50;11.07;;;8.97;;
22571;SDS011;11452;53.368;14.658;2022-10-23T09:47:15;9.70;;;6.30;;
22571;SDS011;11452;53.368;14.658;2022-10-23T10:02:26;6.77;;;5.00;;
22571;SDS011;11452;53.368;14.658;2022-10-23T10:08:10;9.37;;;4.70;;
22571;SDS011;11452;53.368;14.658;2022-10-23T10:46:39;6.57;;;4.07;;
22571;SDS011;11452;53.368;14.658;2022-10-23T10:51:50;7.23;;;4.20;;
22571;SDS011;11452;53.368;14.658;2022-10-23T10:56:59;7.70;;;4.30;;
22571;SDS011;11452;53.368;14.658;2022-10-23T11:07:32;5.57;;;3.37;;
22571;SDS011;11452;53.368;14.658;2022-10-23T11:12:41;6.37;;;3.53;;
22571;SDS011;11452;53.368;14.658;2022-10-23T11:18:00;5.83;;;2.43;;
22571;SDS011;11452;53.368;14.658;2022-10-23T11:39:27;5.33;;;2.50;;
22571;SDS011;11452;53.368;14.658;2022-10-23T11:44:46;9.37;;;3.27;;
22571;SDS011;11452;53.368;14.658;2022-10-23T11:55:16;4.47;;;2.40;;
22571;SDS011;11452;53.368;14.658;2022-10-23T12:00:23;3.70;;;1.90;;
22571;SDS011;11452;53.368;14.658;2022-10-23T12:05:38;2.60;;;2.37;;
22571;SDS011;11452;53.368;14.658;2022-10-23T12:10:47;4.23;;;2.37;;
22571;SDS011;11452;53.368;14.658;2022-10-23T12:15:55;5.90;;;2.47;;
22571;SDS011;11452;53.368;14.658;2022-10-23T12:21:02;5.03;;;1.97;;
22571;SDS011;11452;53.368;14.658;2022-10-23T12:36:58;4.93;;;2.40;;
22571;SDS011;11452;53.368;14.658;2022-10-23T12:42:28;4.57;;;2.63;;
22571;SDS011;11452;53.368;14.658;2022-10-23T12:47:28;4.27;;;2.67;;
22571;SDS011;11452;53.368;14.658;2022-10-23T12:52:34;4.60;;;2.00;;
22571;SDS011;11452;53.368;14.658;2022-10-23T12:57:43;5.10;;;2.00;;
22571;SDS011;11452;53.368;14.658;2022-10-23T13:03:03;5.70;;;2.00;;
22571;SDS011;11452;53.368;14.658;2022-10-23T13:08:07;3.97;;;2.20;;
22571;SDS011;11452;53.368;14.658;2022-10-23T13:13:17;4.67;;;2.00;;
22571;SDS011;11452;53.368;14.658;2022-10-23T13:18:27;3.50;;;1.87;;
22571;SDS011;11452;53.368;14.658;2022-10-23T13:23:33;5.87;;;2.23;;
22571;SDS011;11452;53.368;14.658;2022-10-23T13:28:43;3.43;;;1.83;;
22571;SDS011;11452;53.368;14.658;2022-10-23T13:44:19;3.70;;;2.50;;
22571;SDS011;11452;53.368;14.658;2022-10-23T13:49:26;3.97;;;2.40;;
22571;SDS011;11452;53.368;14.658;2022-10-23T13:54:32;3.97;;;2.40;;
22571;SDS011;11452;53.368;14.658;2022-10-23T13:59:38;3.43;;;2.57;;
22571;SDS011;11452;53.368;14.658;2022-10-23T14:04:43;6.07;;;2.73;;
22571;SDS011;11452;53.368;14.658;2022-10-23T14:09:49;4.17;;;2.73;;
22571;SDS011;11452;53.368;14.658;2022-10-23T14:14:55;5.70;;;2.70;;
22571;SDS011;11452;53.368;14.658;2022-10-23T14:20:00;9.30;;;3.70;;
22571;SDS011;11452;53.368;14.658;2022-10-23T14:25:09;5.90;;;4.33;;
22571;SDS011;11452;53.368;14.658;2022-10-23T14:30:14;9.57;;;5.60;;
22571;SDS011;11452;53.368;14.658;2022-10-23T14:35:20;6.83;;;5.13;;
22571;SDS011;11452;53.368;14.658;2022-10-23T14:40:25;8.80;;;5.53;;
22571;SDS011;11452;53.368;14.658;2022-10-23T14:45:31;8.13;;;6.23;;
22571;SDS011;11452;53.368;14.658;2022-10-23T14:50:40;7.03;;;5.77;;
22571;SDS011;11452;53.368;14.658;2022-10-23T14:55:48;8.30;;;6.67;;
22571;SDS011;11452;53.368;14.658;2022-10-23T15:01:03;7.73;;;6.17;;
22571;SDS011;11452;53.368;14.658;2022-10-23T15:06:05;9.33;;;7.13;;
22571;SDS011;11452;53.368;14.658;2022-10-23T15:11:12;8.70;;;6.80;;
22571;SDS011;11452;53.368;14.658;2022-10-23T15:16:17;10.53;;;7.47;;
22571;SDS011;11452;53.368;14.658;2022-10-23T15:21:24;8.53;;;7.60;;
22571;SDS011;11452;53.368;14.658;2022-10-23T15:26:29;10.97;;;8.13;;
22571;SDS011;11452;53.368;14.658;2022-10-23T15:36:43;11.20;;;9.30;;
22571;SDS011;11452;53.368;14.658;2022-10-23T15:41:52;13.60;;;10.10;;
22571;SDS011;11452;53.368;14.658;2022-10-23T15:46:58;13.47;;;11.17;;
22571;SDS011;11452;53.368;14.658;2022-10-23T15:52:04;13.97;;;11.07;;
22571;SDS011;11452;53.368;14.658;2022-10-23T15:57:12;13.20;;;10.97;;
22571;SDS011;11452;53.368;14.658;2022-10-23T16:02:17;13.70;;;11.30;;
22571;SDS011;11452;53.368;14.658;2022-10-23T16:07:24;14.37;;;10.87;;
22571;SDS011;11452;53.368;14.658;2022-10-23T16:12:30;14.70;;;11.37;;
22571;SDS011;11452;53.368;14.658;2022-10-23T16:17:35;12.47;;;10.07;;
22571;SDS011;11452;53.368;14.658;2022-10-23T16:22:41;14.13;;;11.67;;
22571;SDS011;11452;53.368;14.658;2022-10-23T16:27:47;12.13;;;9.97;;
22571;SDS011;11452;53.368;14.658;2022-10-23T16:32:53;14.40;;;11.33;;
22571;SDS011;11452;53.368;14.658;2022-10-23T16:37:58;13.33;;;11.63;;
22571;SDS011;11452;53.368;14.658;2022-10-23T16:43:04;15.10;;;10.83;;
22571;SDS011;11452;53.368;14.658;2022-10-23T16:48:20;13.27;;;10.80;;
22571;SDS011;11452;53.368;14.658;2022-10-23T16:53:26;11.70;;;10.37;;
22571;SDS011;11452;53.368;14.658;2022-10-23T16:58:33;14.67;;;10.97;;
22571;SDS011;11452;53.368;14.658;2022-10-23T17:03:40;14.37;;;11.40;;
22571;SDS011;11452;53.368;14.658;2022-10-23T17:08:47;16.23;;;11.43;;
22571;SDS011;11452;53.368;14.658;2022-10-23T17:14:00;14.03;;;10.60;;
22571;SDS011;11452;53.368;14.658;2022-10-23T17:19:08;16.57;;;11.33;;
22571;SDS011;11452;53.368;14.658;2022-10-23T17:24:17;14.60;;;11.03;;
22571;SDS011;11452;53.368;14.658;2022-10-23T17:29:22;12.47;;;10.80;;
22571;SDS011;11452;53.368;14.658;2022-10-23T17:34:28;11.97;;;10.50;;
22571;SDS011;11452;53.368;14.658;2022-10-23T17:39:33;13.67;;;10.63;;
22571;SDS011;11452;53.368;14.658;2022-10-23T17:44:39;13.67;;;11.37;;
22571;SDS011;11452;53.368;14.658;2022-10-23T17:49:44;13.80;;;10.93;;
22571;SDS011;11452;53.368;14.658;2022-10-23T17:54:50;13.70;;;10.13;;
22571;SDS011;11452;53.368;14.658;2022-10-23T17:59:56;11.43;;;10.23;;
22571;SDS011;11452;53.368;14.658;2022-10-23T18:05:02;12.50;;;10.17;;
22571;SDS011;11452;53.368;14.658;2022-10-23T18:10:09;12.13;;;10.83;;
22571;SDS011;11452;53.368;14.658;2022-10-23T18:15:15;14.33;;;9.97;;
22571;SDS011;11452;53.368;14.658;2022-10-23T18:20:20;11.70;;;9.67;;
22571;SDS011;11452;53.368;14.658;2022-10-23T18:25:26;11.17;;;9.57;;
22571;SDS011;11452;53.368;14.658;2022-10-23T18:30:31;11.40;;;9.60;;
22571;SDS011;11452;53.368;14.658;2022-10-23T18:35:41;10.50;;;8.87;;
22571;SDS011;11452;53.368;14.658;2022-10-23T18:40:47;9.40;;;8.37;;
22571;SDS011;11452;53.368;14.658;2022-10-23T18:45:55;11.90;;;8.90;;
22571;SDS011;11452;53.368;14.658;2022-10-23T18:51:01;10.43;;;8.50;;
22571;SDS011;11452;53.368;14.658;2022-10-23T18:56:07;12.13;;;8.50;;
22571;SDS011;11452;53.368;14.658;2022-10-23T19:01:13;10.63;;;9.17;;
22571;SDS011;11452;53.368;14.658;2022-10-23T19:06:19;10.07;;;8.47;;
22571;SDS011;11452;53.368;14.658;2022-10-23T19:11:25;10.53;;;9.33;;
22571;SDS011;11452;53.368;14.658;2022-10-23T19:22:04;11.13;;;9.00;;
22571;SDS011;11452;53.368;14.658;2022-10-23T19:27:12;11.27;;;9.10;;
22571;SDS011;11452;53.368;14.658;2022-10-23T19:32:17;12.03;;;9.20;;
22571;SDS011;11452;53.368;14.658;2022-10-23T19:37:24;13.37;;;9.03;;
22571;SDS011;11452;53.368;14.658;2022-10-23T19:42:32;12.87;;;8.83;;
22571;SDS011;11452;53.368;14.658;2022-10-23T19:47:40;13.93;;;11.00;;
22571;SDS011;11452;53.368;14.658;2022-10-23T19:52:47;10.03;;;9.03;;
22571;SDS011;11452;53.368;14.658;2022-10-23T19:57:53;14.23;;;10.33;;
22571;SDS011;11452;53.368;14.658;2022-10-23T20:02:59;11.67;;;9.00;;
22571;SDS011;11452;53.368;14.658;2022-10-23T20:08:05;12.63;;;10.33;;
22571;SDS011;11452;53.368;14.658;2022-10-23T20:13:10;14.90;;;9.43;;
22571;SDS011;11452;53.368;14.658;2022-10-23T20:18:17;11.30;;;8.57;;
22571;SDS011;11452;53.368;14.658;2022-10-23T20:23:23;11.50;;;9.30;;
22571;SDS011;11452;53.368;14.658;2022-10-23T20:28:29;10.70;;;9.37;;
22571;SDS011;11452;53.368;14.658;2022-10-23T20:33:35;9.60;;;8.50;;
22571;SDS011;11452;53.368;14.658;2022-10-23T20:38:42;15.53;;;9.20;;
22571;SDS011;11452;53.368;14.658;2022-10-23T20:43:47;9.80;;;8.40;;
22571;SDS011;11452;53.368;14.658;2022-10-23T20:48:53;9.40;;;7.97;;
22571;SDS011;11452;53.368;14.658;2022-10-23T20:53:59;10.20;;;8.27;;
22571;SDS011;11452;53.368;14.658;2022-10-23T20:59:16;9.73;;;8.43;;
22571;SDS011;11452;53.368;14.658;2022-10-23T21:04:20;10.87;;;8.90;;
22571;SDS011;11452;53.368;14.658;2022-10-23T21:09:27;10.50;;;8.30;;
22571;SDS011;11452;53.368;14.658;2022-10-23T21:14:34;11.10;;;8.13;;
22571;SDS011;11452;53.368;14.658;2022-10-23T21:19:39;10.53;;;7.40;;
22571;SDS011;11452;53.368;14.658;2022-10-23T21:24:45;9.77;;;8.07;;
22571;SDS011;11452;53.368;14.658;2022-10-23T21:29:51;8.50;;;7.60;;
22571;SDS011;11452;53.368;14.658;2022-10-23T21:34:56;8.50;;;7.60;;
22571;SDS011;11452;53.368;14.658;2022-10-23T21:40:02;9.23;;;7.53;;
22571;SDS011;11452;53.368;14.658;2022-10-23T21:45:25;10.30;;;7.60;;
22571;SDS011;11452;53.368;14.658;2022-10-23T21:50:30;7.57;;;6.80;;
22571;SDS011;11452;53.368;14.658;2022-10-23T21:55:36;11.27;;;7.37;;
22571;SDS011;11452;53.368;14.658;2022-10-23T22:00:41;9.00;;;7.20;;
22571;SDS011;11452;53.368;14.658;2022-10-23T22:05:47;8.37;;;6.77;;
22571;SDS011;11452;53.368;14.658;2022-10-23T22:10:53;9.77;;;7.07;;
22571;SDS011;11452;53.368;14.658;2022-10-23T22:16:02;8.43;;;6.77;;
22571;SDS011;11452;53.368;14.658;2022-10-23T22:21:12;8.70;;;6.53;;
22571;SDS011;11452;53.368;14.658;2022-10-23T22:31:29;9.37;;;5.87;;
22571;SDS011;11452;53.368;14.658;2022-10-23T22:36:36;7.50;;;6.40;;
22571;SDS011;11452;53.368;14.658;2022-10-23T22:41:42;7.90;;;5.80;;
22571;SDS011;11452;53.368;14.658;2022-10-23T22:46:47;8.97;;;6.20;;
22571;SDS011;11452;53.368;14.658;2022-10-23T22:51:54;6.10;;;5.50;;
22571;SDS011;11452;53.368;14.658;2022-10-23T22:56:59;6.67;;;6.07;;
22571;SDS011;11452;53.368;14.658;2022-10-23T23:02:05;7.23;;;5.87;;
22571;SDS011;11452;53.368;14.658;2022-10-23T23:07:11;7.57;;;5.33;;
22571;SDS011;11452;53.368;14.658;2022-10-23T23:12:16;8.17;;;5.57;;
22571;SDS011;11452;53.368;14.658;2022-10-23T23:17:22;7.20;;;4.70;;
22571;SDS011;11452;53.368;14.658;2022-10-23T23:22:28;7.00;;;4.70;;
22571;SDS011;11452;53.368;14.658;2022-10-23T23:27:33;5.87;;;5.27;;
22571;SDS011;11452;53.368;14.658;2022-10-23T23:32:39;5.63;;;5.00;;
22571;SDS011;11452;53.368;14.658;2022-10-23T23:37:45;6.97;;;5.10;;
22571;SDS011;11452;53.368;14.658;2022-10-23T23:42:51;6.93;;;5.43;;
22571;SDS011;11452;53.368;14.658;2022-10-23T23:47:56;7.57;;;5.00;;
22571;SDS011;11452;53.368;14.658;2022-10-23T23:53:02;7.60;;;5.37;;
22571;SDS011;11452;53.368;14.658;2022-10-23T23:58:08;6.43;;;4.77;;
